createdAt,value
2022-10-23T00:00:43.823Z,0.00
2022-10-23T00:01:43.777Z,0.00
2022-10-23T00:02:44.294Z,0.00
2022-10-23T00:03:43.706Z,0.00
2022-10-23T00:04:43.689Z,0.00
2022-10-23T00:05:44.689Z,0.00
2022-10-23T00:06:43.678Z,0.00
2022-10-23T00:07:43.639Z,0.00
2022-10-23T00:08:43.609Z,0.00
2022-10-23T00:09:43.649Z,0.00
2022-10-23T00:10:43.596Z,0.00
2022-10-23T00:11:43.550Z,0.00
2022-10-23T00:12:44.509Z,0.00
2022-10-23T00:13:43.526Z,0.00
2022-10-23T00:14:43.489Z,0.00
2022-10-23T00:15:43.541Z,0.00
2022-10-23T00:16:43.462Z,0.00
2022-10-23T00:17:43.747Z,0.00
2022-10-23T00:18:43.402Z,0.00
2022-10-23T00:19:43.387Z,0.00
2022-10-23T00:20:43.398Z,0.00
2022-10-23T00:21:43.338Z,0.00
2022-10-23T00:22:45.082Z,0.00
2022-10-23T00:23:43.293Z,0.00
2022-10-23T00:24:43.285Z,0.00
2022-10-23T00:25:43.315Z,0.00
2022-10-23T00:26:43.237Z,0.00
2022-10-23T00:27:43.467Z,0.00
2022-10-23T00:28:43.204Z,0.00
2022-10-23T00:29:43.209Z,0.00
2022-10-23T00:30:43.185Z,0.00
2022-10-23T00:31:43.157Z,0.00
2022-10-23T00:32:43.119Z,0.00
2022-10-23T00:33:43.164Z,0.00
2022-10-23T00:34:43.089Z,0.00
2022-10-23T00:35:43.056Z,0.00
2022-10-23T00:36:43.056Z,0.00
2022-10-23T00:37:43.311Z,0.00
2022-10-23T00:38:43.014Z,0.00
2022-10-23T00:39:42.971Z,0.00
2022-10-23T00:40:43.037Z,0.00
2022-10-23T00:41:42.969Z,0.00
2022-10-23T00:42:43.206Z,0.00
2022-10-23T00:43:42.907Z,0.00
2022-10-23T00:44:42.891Z,0.00
2022-10-23T00:45:43.935Z,0.00
2022-10-23T00:46:42.838Z,0.00
2022-10-23T00:47:42.835Z,0.00
2022-10-23T00:48:42.807Z,0.00
2022-10-23T00:49:42.926Z,0.00
2022-10-23T00:50:42.778Z,0.00
2022-10-23T00:51:43.735Z,0.00
2022-10-23T00:52:42.862Z,0.00
2022-10-23T00:53:43.708Z,0.00
2022-10-23T00:54:42.689Z,0.00
2022-10-23T00:55:42.685Z,0.00
2022-10-23T00:56:42.646Z,0.00
2022-10-23T00:57:42.617Z,0.00
2022-10-23T00:58:42.609Z,0.00
2022-10-23T00:59:42.581Z,0.00
2022-10-23T01:00:42.773Z,0.00
2022-10-23T01:01:42.637Z,0.00
2022-10-23T01:02:42.826Z,0.00
2022-10-23T01:03:42.619Z,0.00
2022-10-23T01:04:42.479Z,0.00
2022-10-23T01:05:42.540Z,0.00
2022-10-23T01:06:42.447Z,0.00
2022-10-23T01:07:42.677Z,0.00
2022-10-23T01:08:42.526Z,0.00
2022-10-23T01:09:42.379Z,0.00
2022-10-23T01:10:42.405Z,0.00
2022-10-23T01:11:42.355Z,0.00
2022-10-23T01:12:42.322Z,0.00
2022-10-23T01:13:42.367Z,0.00
2022-10-23T01:14:42.294Z,0.00
2022-10-23T01:15:42.308Z,0.00
2022-10-23T01:16:42.278Z,0.00
2022-10-23T01:17:44.492Z,0.00
2022-10-23T01:18:43.222Z,0.00
2022-10-23T01:19:42.204Z,0.00
2022-10-23T01:20:42.217Z,0.00
2022-10-23T01:21:42.157Z,0.00
2022-10-23T01:22:42.284Z,0.00
2022-10-23T01:23:42.117Z,0.00
2022-10-23T01:24:42.095Z,0.00
2022-10-23T01:25:42.108Z,0.00
2022-10-23T01:26:42.057Z,0.00
2022-10-23T01:27:42.056Z,0.00
2022-10-23T01:28:42.022Z,0.00
2022-10-23T01:29:42.002Z,0.00
2022-10-23T01:31:42.989Z,0.00
2022-10-23T01:32:42.266Z,0.00
2022-10-23T01:33:41.944Z,0.00
2022-10-23T01:34:41.899Z,0.00
2022-10-23T01:35:41.874Z,0.00
2022-10-23T01:36:41.864Z,0.00
2022-10-23T01:37:41.837Z,0.00
2022-10-23T01:38:41.845Z,0.00
2022-10-23T01:39:41.815Z,0.00
2022-10-23T01:40:41.803Z,0.00
2022-10-23T01:41:42.763Z,0.00
2022-10-23T01:42:42.020Z,0.00
2022-10-23T01:43:41.711Z,0.00
2022-10-23T01:44:41.734Z,0.00
2022-10-23T01:45:41.701Z,0.00
2022-10-23T01:46:41.663Z,0.00
2022-10-23T01:47:41.927Z,0.00
2022-10-23T01:48:41.614Z,0.00
2022-10-23T01:49:41.596Z,0.00
2022-10-23T01:50:41.615Z,0.00
2022-10-23T01:51:41.553Z,0.00
2022-10-23T01:52:41.552Z,0.00
2022-10-23T01:53:41.517Z,0.00
2022-10-23T01:54:41.548Z,0.00
2022-10-23T01:56:41.470Z,0.00
2022-10-23T01:57:41.688Z,0.00
2022-10-23T01:58:41.416Z,0.00
2022-10-23T01:59:41.403Z,0.00
2022-10-23T02:00:41.400Z,0.00
2022-10-23T02:01:41.466Z,0.00
2022-10-23T02:02:41.338Z,0.00
2022-10-23T02:03:41.317Z,0.00
2022-10-23T02:04:41.297Z,0.00
2022-10-23T02:05:41.312Z,0.00
2022-10-23T02:06:41.268Z,0.00
2022-10-23T02:07:41.478Z,0.00
2022-10-23T02:08:41.212Z,0.00
2022-10-23T02:09:41.210Z,0.00
2022-10-23T02:10:41.198Z,0.00
2022-10-23T02:11:41.168Z,0.00
2022-10-23T02:12:41.137Z,0.00
2022-10-23T02:13:41.119Z,0.00
2022-10-23T02:14:41.091Z,0.00
2022-10-23T02:15:41.098Z,0.00
2022-10-23T02:16:41.067Z,0.00
2022-10-23T02:17:41.268Z,0.00
2022-10-23T02:18:41.007Z,0.00
2022-10-23T02:19:40.983Z,0.00
2022-10-23T02:20:41.032Z,0.00
2022-10-23T02:21:40.946Z,0.00
2022-10-23T02:22:41.219Z,0.00
2022-10-23T02:23:40.909Z,0.00
2022-10-23T02:24:40.890Z,0.00
2022-10-23T02:25:40.898Z,0.00
2022-10-23T02:26:40.849Z,0.00
2022-10-23T02:27:40.839Z,0.00
2022-10-23T02:28:40.807Z,0.00
2022-10-23T02:29:40.794Z,0.00
2022-10-23T02:30:40.808Z,0.00
2022-10-23T02:31:40.763Z,0.00
2022-10-23T02:32:41.012Z,0.00
2022-10-23T02:33:40.718Z,0.00
2022-10-23T02:34:40.718Z,0.00
2022-10-23T02:35:40.707Z,0.00
2022-10-23T02:36:40.650Z,0.00
2022-10-23T02:37:40.901Z,0.00
2022-10-23T02:38:40.637Z,0.00
2022-10-23T02:39:40.607Z,0.00
2022-10-23T02:40:40.600Z,0.00
2022-10-23T02:41:40.554Z,0.00
2022-10-23T02:42:40.529Z,0.00
2022-10-23T02:43:40.508Z,0.00
2022-10-23T02:44:40.489Z,0.00
2022-10-23T02:46:40.455Z,0.00
2022-10-23T02:47:40.655Z,0.00
2022-10-23T02:48:40.419Z,0.00
2022-10-23T02:49:40.405Z,0.00
2022-10-23T02:50:40.397Z,0.00
2022-10-23T02:51:40.354Z,0.00
2022-10-23T02:52:40.357Z,0.00
2022-10-23T02:53:40.342Z,0.00
2022-10-23T02:54:40.296Z,0.00
2022-10-23T02:55:40.299Z,0.00
2022-10-23T02:56:40.258Z,0.00
2022-10-23T02:57:40.391Z,0.00
2022-10-23T02:58:40.223Z,0.00
2022-10-23T02:59:40.195Z,0.00
2022-10-23T03:00:40.210Z,0.00
2022-10-23T03:01:40.273Z,0.00
2022-10-23T03:02:40.143Z,0.00
2022-10-23T03:03:40.120Z,0.00
2022-10-23T03:04:41.066Z,0.00
2022-10-23T03:05:40.105Z,0.00
2022-10-23T03:06:40.073Z,0.00
2022-10-23T03:07:40.268Z,0.00
2022-10-23T03:08:40.028Z,0.00
2022-10-23T03:09:40.010Z,0.00
2022-10-23T03:10:41.050Z,0.00
2022-10-23T03:11:39.961Z,0.00
2022-10-23T03:12:40.250Z,0.00
2022-10-23T03:13:39.928Z,0.00
2022-10-23T03:14:39.909Z,0.00
2022-10-23T03:15:39.909Z,0.00
2022-10-23T03:16:39.872Z,0.00
2022-10-23T03:17:39.855Z,0.00
2022-10-23T03:18:39.822Z,0.00
2022-10-23T03:19:39.813Z,0.00
2022-10-23T03:20:39.828Z,0.00
2022-10-23T03:21:39.760Z,0.00
2022-10-23T03:22:40.022Z,0.00
2022-10-23T03:23:39.723Z,0.00
2022-10-23T03:24:39.707Z,0.00
2022-10-23T03:25:39.718Z,0.00
2022-10-23T03:26:39.667Z,0.00
2022-10-23T03:27:39.661Z,0.00
2022-10-23T03:28:39.632Z,0.00
2022-10-23T03:29:39.613Z,0.00
2022-10-23T03:30:39.619Z,0.00
2022-10-23T03:31:39.570Z,0.00
2022-10-23T03:32:39.698Z,0.00
2022-10-23T03:33:39.550Z,0.00
2022-10-23T03:34:39.512Z,0.00
2022-10-23T03:35:39.548Z,0.00
2022-10-23T03:36:39.468Z,0.00
2022-10-23T03:37:39.697Z,0.00
2022-10-23T03:38:39.434Z,0.00
2022-10-23T03:39:39.415Z,0.00
2022-10-23T03:40:39.424Z,0.00
2022-10-23T03:41:39.378Z,0.00
2022-10-23T03:42:39.355Z,0.00
2022-10-23T03:43:39.344Z,0.00
2022-10-23T03:44:39.318Z,0.00
2022-10-23T03:45:39.329Z,0.00
2022-10-23T03:46:39.286Z,0.00
2022-10-23T03:47:39.337Z,0.00
2022-10-23T03:48:39.245Z,0.00
2022-10-23T03:49:39.224Z,0.00
2022-10-23T03:50:39.229Z,0.00
2022-10-23T03:51:39.185Z,0.00
2022-10-23T03:52:39.411Z,0.00
2022-10-23T03:53:39.156Z,0.00
2022-10-23T03:54:39.155Z,0.00
2022-10-23T03:55:39.129Z,0.00
2022-10-23T03:56:39.089Z,0.00
2022-10-23T03:57:39.058Z,0.00
2022-10-23T03:58:39.041Z,0.00
2022-10-23T03:59:39.020Z,0.00
2022-10-23T04:00:39.097Z,0.00
2022-10-23T04:01:39.033Z,0.00
2022-10-23T04:02:39.023Z,0.00
2022-10-23T04:03:38.960Z,0.00
2022-10-23T04:04:38.988Z,0.00
2022-10-23T04:05:38.925Z,0.00
2022-10-23T04:06:38.906Z,0.00
2022-10-23T04:07:38.868Z,0.00
2022-10-23T04:08:38.845Z,0.00
2022-10-23T04:09:38.823Z,0.00
2022-10-23T04:10:38.840Z,0.00
2022-10-23T04:11:38.810Z,0.00
2022-10-23T04:12:39.886Z,0.00
2022-10-23T04:13:38.746Z,0.00
2022-10-23T04:14:38.747Z,0.00
2022-10-23T04:15:38.736Z,0.00
2022-10-23T04:16:38.711Z,0.00
2022-10-23T04:17:38.666Z,0.00
2022-10-23T04:18:38.646Z,0.00
2022-10-23T04:19:38.634Z,0.00
2022-10-23T04:20:38.632Z,0.00
2022-10-23T04:21:38.595Z,0.00
2022-10-23T04:22:38.564Z,0.00
2022-10-23T04:23:38.572Z,0.00
2022-10-23T04:24:38.529Z,0.00
2022-10-23T04:25:38.597Z,0.00
2022-10-23T04:26:38.485Z,0.00
2022-10-23T04:27:38.495Z,0.00
2022-10-23T04:28:38.448Z,0.00
2022-10-23T04:29:38.442Z,0.00
2022-10-23T04:30:38.443Z,0.00
2022-10-23T04:31:38.383Z,0.00
2022-10-23T04:32:38.367Z,0.00
2022-10-23T04:33:38.344Z,0.00
2022-10-23T04:34:38.331Z,0.00
2022-10-23T04:35:38.339Z,0.00
2022-10-23T04:36:38.338Z,0.00
2022-10-23T04:37:38.270Z,0.00
2022-10-23T04:38:38.252Z,0.00
2022-10-23T04:39:38.234Z,0.00
2022-10-23T04:40:38.250Z,0.00
2022-10-23T04:41:38.186Z,0.00
2022-10-23T04:42:38.189Z,0.00
2022-10-23T04:43:38.187Z,0.00
2022-10-23T04:44:38.130Z,0.00
2022-10-23T04:45:38.166Z,0.00
2022-10-23T04:46:38.093Z,0.00
2022-10-23T04:47:38.069Z,0.00
2022-10-23T04:48:38.046Z,0.00
2022-10-23T04:49:38.034Z,0.00
2022-10-23T04:50:38.064Z,0.00
2022-10-23T04:51:37.988Z,0.00
2022-10-23T04:52:37.975Z,0.00
2022-10-23T04:53:37.948Z,0.00
2022-10-23T04:54:37.966Z,0.00
2022-10-23T04:55:37.957Z,0.00
2022-10-23T04:56:37.931Z,0.00
2022-10-23T04:57:37.867Z,0.00
2022-10-23T04:58:37.861Z,0.00
2022-10-23T04:59:37.847Z,0.00
2022-10-23T05:00:37.897Z,0.00
2022-10-23T05:01:37.906Z,0.00
2022-10-23T05:02:37.766Z,0.00
2022-10-23T05:03:37.746Z,0.00
2022-10-23T05:04:37.726Z,0.00
2022-10-23T05:05:37.728Z,0.00
2022-10-23T05:06:37.692Z,0.00
2022-10-23T05:07:37.661Z,0.00
2022-10-23T05:08:37.645Z,0.00
2022-10-23T05:09:37.623Z,0.00
2022-10-23T05:10:37.634Z,0.00
2022-10-23T05:11:37.586Z,0.00
2022-10-23T05:12:37.571Z,0.00
2022-10-23T05:13:37.552Z,0.00
2022-10-23T05:14:37.530Z,0.00
2022-10-23T05:15:37.590Z,0.00
2022-10-23T05:16:37.490Z,0.00
2022-10-23T05:17:37.467Z,0.00
2022-10-23T05:18:37.449Z,0.00
2022-10-23T05:19:37.432Z,0.00
2022-10-23T05:20:37.430Z,0.00
2022-10-23T05:21:37.388Z,4.00
2022-10-23T05:22:37.372Z,0.00
2022-10-23T05:23:37.343Z,0.00
2022-10-23T05:24:37.321Z,0.00
2022-10-23T05:25:37.331Z,0.00
2022-10-23T05:26:37.285Z,0.00
2022-10-23T05:27:37.362Z,0.00
2022-10-23T05:28:37.259Z,4.00
2022-10-23T05:29:37.225Z,0.00
2022-10-23T05:30:37.232Z,4.00
2022-10-23T05:31:37.196Z,0.00
2022-10-23T05:32:37.163Z,4.00
2022-10-23T05:33:37.151Z,4.00
2022-10-23T05:34:37.120Z,4.00
2022-10-23T05:35:37.128Z,4.00
2022-10-23T05:36:37.082Z,8.00
2022-10-23T05:37:37.062Z,8.00
2022-10-23T05:38:37.056Z,8.00
2022-10-23T05:39:37.034Z,12.00
2022-10-23T05:40:37.039Z,12.00
2022-10-23T05:41:36.984Z,16.00
2022-10-23T05:42:39.505Z,20.00
2022-10-23T05:43:36.959Z,24.00
2022-10-23T05:44:36.922Z,24.00
2022-10-23T05:45:36.895Z,28.00
2022-10-23T05:46:36.901Z,32.00
2022-10-23T05:47:36.856Z,36.00
2022-10-23T05:48:36.840Z,40.00
2022-10-23T05:49:36.815Z,44.00
2022-10-23T05:50:36.800Z,52.00
2022-10-23T05:51:36.807Z,60.00
2022-10-23T05:52:36.758Z,76.00
2022-10-23T05:53:38.906Z,88.00
2022-10-23T05:54:37.721Z,100.00
2022-10-23T05:55:36.700Z,112.00
2022-10-23T05:56:36.703Z,128.00
2022-10-23T05:57:36.658Z,144.00
2022-10-23T05:58:36.638Z,160.00
2022-10-23T05:59:36.620Z,180.00
2022-10-23T06:00:36.599Z,204.00
2022-10-23T06:01:36.815Z,228.00
2022-10-23T06:02:36.644Z,260.00
2022-10-23T06:03:36.540Z,300.00
2022-10-23T06:04:36.520Z,344.00
2022-10-23T06:05:36.536Z,392.00
2022-10-23T06:06:36.508Z,460.00
2022-10-23T06:07:36.464Z,544.00
2022-10-23T06:08:36.446Z,640.00
2022-10-23T06:09:36.432Z,716.00
2022-10-23T06:10:36.403Z,784.00
2022-10-23T06:11:36.407Z,868.00
2022-10-23T06:12:36.361Z,960.00
2022-10-23T06:13:36.351Z,1048.00
2022-10-23T06:14:36.331Z,1120.00
2022-10-23T06:15:36.303Z,1204.00
2022-10-23T06:16:36.307Z,1292.00
2022-10-23T06:17:36.250Z,1376.00
2022-10-23T06:18:37.238Z,1488.00
2022-10-23T06:19:36.339Z,1636.00
2022-10-23T06:20:36.197Z,1984.00
2022-10-23T06:21:36.210Z,2440.00
2022-10-23T06:22:36.160Z,3144.00
2022-10-23T06:23:36.139Z,3976.00
2022-10-23T06:24:36.119Z,3456.00
2022-10-23T06:25:36.095Z,2316.00
2022-10-23T06:26:36.108Z,2124.00
2022-10-23T06:27:36.057Z,2100.00
2022-10-23T06:28:36.031Z,2112.00
2022-10-23T06:29:36.018Z,2136.00
2022-10-23T06:30:36.012Z,2160.00
2022-10-23T06:31:36.018Z,2192.00
2022-10-23T06:32:35.953Z,2228.00
2022-10-23T06:33:35.933Z,2268.00
2022-10-23T06:34:35.913Z,2320.00
2022-10-23T06:35:35.903Z,2400.00
2022-10-23T06:36:35.898Z,2528.00
2022-10-23T06:37:35.855Z,2856.00
2022-10-23T06:38:35.830Z,3644.00
2022-10-23T06:39:35.816Z,3672.00
2022-10-23T06:40:35.789Z,3292.00
2022-10-23T06:41:35.791Z,3244.00
2022-10-23T06:42:35.746Z,3264.00
2022-10-23T06:43:35.728Z,3332.00
2022-10-23T06:44:35.703Z,3436.00
2022-10-23T06:45:35.686Z,3560.00
2022-10-23T06:46:35.689Z,3596.00
2022-10-23T06:47:35.647Z,3688.00
2022-10-23T06:48:35.622Z,3788.00
2022-10-23T06:49:35.597Z,3868.00
2022-10-23T06:50:35.581Z,3928.00
2022-10-23T06:51:35.583Z,3992.00
2022-10-23T06:52:46.527Z,4076.00
2022-10-23T06:53:37.517Z,4196.00
2022-10-23T06:54:35.492Z,4344.00
2022-10-23T06:55:35.477Z,4488.00
2022-10-23T06:56:35.476Z,4648.00
2022-10-23T06:57:35.430Z,4836.00
2022-10-23T06:58:35.407Z,5048.00
2022-10-23T06:59:35.386Z,5244.00
2022-10-23T07:00:35.413Z,5428.00
2022-10-23T07:01:35.615Z,5584.00
2022-10-23T07:02:35.315Z,5728.00
2022-10-23T07:03:35.295Z,5896.00
2022-10-23T07:04:35.268Z,6104.00
2022-10-23T07:05:35.246Z,6256.00
2022-10-23T07:06:35.258Z,6496.00
2022-10-23T07:07:35.209Z,6944.00
2022-10-23T07:08:35.192Z,7220.00
2022-10-23T07:09:35.165Z,7476.00
2022-10-23T07:10:35.145Z,7824.00
2022-10-23T07:11:35.151Z,8088.00
2022-10-23T07:12:35.100Z,8444.00
2022-10-23T07:13:35.083Z,8756.00
2022-10-23T07:14:35.058Z,9068.00
2022-10-23T07:15:35.039Z,9376.00
2022-10-23T07:16:35.042Z,9632.00
2022-10-23T07:17:34.997Z,10688.00
2022-10-23T07:19:35.948Z,13308.00
2022-10-23T07:20:34.924Z,13156.00
2022-10-23T07:21:34.929Z,21824.00
2022-10-23T07:22:34.882Z,19392.00
2022-10-23T07:23:34.857Z,19488.00
2022-10-23T07:24:34.836Z,23200.00
2022-10-23T07:25:34.810Z,29184.00
2022-10-23T07:26:34.817Z,32384.00
2022-10-23T07:27:34.767Z,33952.00
2022-10-23T07:28:34.750Z,30624.00
2022-10-23T07:29:34.728Z,40000.00
2022-10-23T07:30:34.720Z,43584.00
2022-10-23T07:31:34.713Z,40512.00
2022-10-23T07:32:34.668Z,37792.00
2022-10-23T07:33:34.650Z,31712.00
2022-10-23T07:34:34.635Z,27424.00
2022-10-23T07:35:37.217Z,27904.00
2022-10-23T07:36:34.616Z,31232.00
2022-10-23T07:37:34.569Z,37088.00
2022-10-23T07:38:34.550Z,37344.00
2022-10-23T07:39:34.537Z,44288.00
2022-10-23T07:40:34.517Z,50400.00
2022-10-23T07:41:34.529Z,58688.00
2022-10-23T07:42:34.508Z,60544.00
2022-10-23T07:43:34.464Z,56192.00
2022-10-23T07:44:34.438Z,59552.00
2022-10-23T07:45:35.250Z,43008.00
2022-10-23T07:46:34.403Z,46016.00
2022-10-23T07:47:34.409Z,62144.00
2022-10-23T07:48:34.362Z,58752.00
2022-10-23T07:49:34.341Z,67776.00
2022-10-23T07:50:34.328Z,79200.00
2022-10-23T07:51:34.332Z,81472.00
2022-10-23T07:52:35.941Z,80320.00
2022-10-23T07:53:34.273Z,77568.00
2022-10-23T07:54:34.245Z,78848.00
2022-10-23T07:55:34.228Z,70208.00
2022-10-23T07:56:34.239Z,54528.00
2022-10-23T07:57:34.195Z,60896.00
2022-10-23T07:58:34.174Z,64544.00
2022-10-23T07:59:37.161Z,70976.00
2022-10-23T08:00:35.136Z,66912.00
2022-10-23T08:01:34.244Z,59712.00
2022-10-23T08:02:34.165Z,56544.00
2022-10-23T08:03:34.088Z,51616.00
2022-10-23T08:04:34.064Z,52992.00
2022-10-23T08:05:34.044Z,55264.00
2022-10-23T08:06:34.064Z,46400.00
2022-10-23T08:07:34.002Z,40928.00
2022-10-23T08:08:34.055Z,42912.00
2022-10-23T08:09:33.968Z,36960.00
2022-10-23T08:10:33.951Z,40992.00
2022-10-23T08:11:33.958Z,42528.00
2022-10-23T08:12:33.918Z,44032.00
2022-10-23T08:13:33.899Z,46208.00
2022-10-23T08:14:33.879Z,48800.00
2022-10-23T08:15:33.862Z,57376.00
2022-10-23T08:16:33.873Z,55616.00
2022-10-23T08:17:33.820Z,53088.00
2022-10-23T08:18:33.807Z,51776.00
2022-10-23T08:19:33.788Z,49280.00
2022-10-23T08:20:33.768Z,45600.00
2022-10-23T08:21:33.778Z,39424.00
2022-10-23T08:22:33.722Z,36384.00
2022-10-23T08:23:33.709Z,34624.00
2022-10-23T08:24:33.696Z,32640.00
2022-10-23T08:25:33.679Z,32704.00
2022-10-23T08:26:33.679Z,32768.00
2022-10-23T08:27:33.635Z,29664.00
2022-10-23T08:28:33.615Z,27136.00
2022-10-23T08:29:33.596Z,26848.00
2022-10-23T08:30:33.580Z,27648.00
2022-10-23T08:31:33.588Z,30528.00
2022-10-23T08:32:33.557Z,36192.00
2022-10-23T08:33:33.536Z,34720.00
2022-10-23T08:34:33.502Z,35040.00
2022-10-23T08:35:33.483Z,35392.00
2022-10-23T08:36:33.500Z,35808.00
2022-10-23T08:37:33.446Z,36160.00
2022-10-23T08:38:33.426Z,35584.00
2022-10-23T08:39:35.124Z,34432.00
2022-10-23T08:40:33.433Z,31936.00
2022-10-23T08:41:33.409Z,30336.00
2022-10-23T08:42:33.373Z,28544.00
2022-10-23T08:43:33.352Z,27840.00
2022-10-23T08:44:33.326Z,29152.00
2022-10-23T08:45:33.291Z,28704.00
2022-10-23T08:46:34.315Z,28096.00
2022-10-23T08:47:33.265Z,25920.00
2022-10-23T08:48:33.258Z,25376.00
2022-10-23T08:49:33.233Z,22464.00
2022-10-23T08:50:33.212Z,23136.00
2022-10-23T08:51:33.220Z,24160.00
2022-10-23T08:52:33.171Z,25760.00
2022-10-23T08:53:33.160Z,27296.00
2022-10-23T08:54:33.156Z,25952.00
2022-10-23T08:55:33.120Z,25056.00
2022-10-23T08:56:33.127Z,26368.00
2022-10-23T08:57:33.096Z,28192.00
2022-10-23T08:58:33.059Z,26272.00
2022-10-23T08:59:33.054Z,28224.00
2022-10-23T09:00:33.055Z,31008.00
2022-10-23T09:01:33.144Z,33696.00
2022-10-23T09:02:32.987Z,20512.00
2022-10-23T09:03:32.974Z,17568.00
2022-10-23T09:04:32.950Z,18400.00
2022-10-23T09:05:32.933Z,16544.00
2022-10-23T09:06:32.939Z,16992.00
2022-10-23T09:07:32.907Z,39840.00
2022-10-23T09:08:32.879Z,45568.00
2022-10-23T09:09:32.862Z,23680.00
2022-10-23T09:10:32.842Z,38400.00
2022-10-23T09:11:32.851Z,18400.00
2022-10-23T09:12:32.822Z,15136.00
2022-10-23T09:13:32.785Z,14140.00
2022-10-23T09:14:32.771Z,13540.00
2022-10-23T09:15:32.749Z,14388.00
2022-10-23T09:16:32.771Z,14504.00
2022-10-23T09:17:32.710Z,17664.00
2022-10-23T09:18:32.689Z,23008.00
2022-10-23T09:19:32.666Z,36224.00
2022-10-23T09:20:32.670Z,55360.00
2022-10-23T09:21:32.668Z,79744.00
2022-10-23T09:22:32.615Z,124896.00
2022-10-23T09:23:32.597Z,48416.00
2022-10-23T09:24:32.595Z,24640.00
2022-10-23T09:25:32.559Z,17280.00
2022-10-23T09:26:32.566Z,17536.00
2022-10-23T09:27:32.530Z,16256.00
2022-10-23T09:28:32.495Z,14352.00
2022-10-23T09:29:32.549Z,13240.00
2022-10-23T09:30:32.463Z,12684.00
2022-10-23T09:31:32.462Z,12084.00
2022-10-23T09:32:32.430Z,11464.00
2022-10-23T09:33:32.413Z,11048.00
2022-10-23T09:34:32.384Z,10824.00
2022-10-23T09:35:32.372Z,10704.00
2022-10-23T09:36:32.371Z,10680.00
2022-10-23T09:37:32.323Z,10712.00
2022-10-23T09:38:33.328Z,10812.00
2022-10-23T09:39:32.289Z,11032.00
2022-10-23T09:40:32.267Z,11556.00
2022-10-23T09:41:32.322Z,34784.00
2022-10-23T09:42:32.237Z,26624.00
2022-10-23T09:43:32.208Z,15040.00
2022-10-23T09:44:32.226Z,13780.00
2022-10-23T09:45:32.229Z,12428.00
2022-10-23T09:46:32.183Z,11680.00
2022-10-23T09:47:32.130Z,11376.00
2022-10-23T09:48:32.144Z,11280.00
2022-10-23T09:49:32.100Z,11168.00
2022-10-23T09:50:32.080Z,11068.00
2022-10-23T09:51:32.096Z,11028.00
2022-10-23T09:52:32.037Z,11096.00
2022-10-23T09:53:32.071Z,11252.00
2022-10-23T09:54:32.009Z,11428.00
2022-10-23T09:55:31.980Z,11396.00
2022-10-23T09:56:31.988Z,12480.00
2022-10-23T09:57:31.954Z,27616.00
2022-10-23T09:58:31.926Z,20288.00
2022-10-23T09:59:31.914Z,14412.00
2022-10-23T10:00:31.883Z,23104.00
2022-10-23T10:01:32.033Z,24576.00
2022-10-23T10:02:31.841Z,18976.00
2022-10-23T10:03:31.833Z,18208.00
2022-10-23T10:04:31.802Z,16896.00
2022-10-23T10:05:32.787Z,14084.00
2022-10-23T10:06:31.833Z,13316.00
2022-10-23T10:07:34.676Z,12776.00
2022-10-23T10:08:31.750Z,12620.00
2022-10-23T10:09:31.725Z,13300.00
2022-10-23T10:10:31.706Z,12964.00
2022-10-23T10:11:31.708Z,12508.00
2022-10-23T10:12:31.656Z,12108.00
2022-10-23T10:13:31.649Z,14616.00
2022-10-23T10:14:31.626Z,19776.00
2022-10-23T10:15:31.622Z,15584.00
2022-10-23T10:16:31.688Z,17376.00
2022-10-23T10:17:31.559Z,13740.00
2022-10-23T10:18:31.567Z,12460.00
2022-10-23T10:19:31.530Z,14020.00
2022-10-23T10:20:31.511Z,13184.00
2022-10-23T10:21:31.521Z,13512.00
2022-10-23T10:22:31.463Z,12180.00
2022-10-23T10:23:31.466Z,12448.00
2022-10-23T10:24:31.449Z,11928.00
2022-10-23T10:25:31.445Z,11460.00
2022-10-23T10:26:31.411Z,12284.00
2022-10-23T10:27:31.437Z,12644.00
2022-10-23T10:28:31.361Z,12740.00
2022-10-23T10:29:31.345Z,13064.00
2022-10-23T10:30:31.339Z,12424.00
2022-10-23T10:31:31.322Z,12252.00
2022-10-23T10:32:31.281Z,11696.00
2022-10-23T10:33:31.255Z,11536.00
2022-10-23T10:34:31.245Z,11232.00
2022-10-23T10:35:31.237Z,11104.00
2022-10-23T10:36:31.233Z,11096.00
2022-10-23T10:37:31.186Z,11076.00
2022-10-23T10:38:31.174Z,10916.00
2022-10-23T10:39:31.204Z,10872.00
2022-10-23T10:40:31.125Z,10560.00
2022-10-23T10:41:31.148Z,10416.00
2022-10-23T10:42:31.090Z,10316.00
2022-10-23T10:43:31.069Z,10180.00
2022-10-23T10:44:31.078Z,10088.00
2022-10-23T10:45:31.036Z,10028.00
2022-10-23T10:46:31.041Z,10004.00
2022-10-23T10:47:31.003Z,10156.00
2022-10-23T10:48:30.993Z,10020.00
2022-10-23T10:49:30.959Z,9932.00
2022-10-23T10:50:30.940Z,9900.00
2022-10-23T10:51:30.951Z,9880.00
2022-10-23T10:52:30.902Z,9876.00
2022-10-23T10:53:30.884Z,9836.00
2022-10-23T10:54:30.874Z,9780.00
2022-10-23T10:55:30.849Z,9736.00
2022-10-23T10:56:30.855Z,9716.00
2022-10-23T10:57:30.844Z,9720.00
2022-10-23T10:58:30.784Z,9736.00
2022-10-23T10:59:31.354Z,9756.00
2022-10-23T11:00:30.757Z,9780.00
2022-10-23T11:01:30.871Z,9760.00
2022-10-23T11:02:30.743Z,9760.00
2022-10-23T11:03:30.690Z,9788.00
2022-10-23T11:04:30.683Z,9792.00
2022-10-23T11:05:30.656Z,9744.00
2022-10-23T11:06:30.660Z,9652.00
2022-10-23T11:07:30.625Z,9584.00
2022-10-23T11:08:31.496Z,9480.00
2022-10-23T11:09:30.587Z,9368.00
2022-10-23T11:10:30.557Z,9232.00
2022-10-23T11:11:30.566Z,9064.00
2022-10-23T11:12:30.533Z,8940.00
2022-10-23T11:13:30.505Z,8796.00
2022-10-23T11:14:30.502Z,8640.00
2022-10-23T11:15:30.466Z,8496.00
2022-10-23T11:16:30.476Z,8348.00
2022-10-23T11:17:30.424Z,8196.00
2022-10-23T11:18:30.441Z,8040.00
2022-10-23T11:19:30.440Z,7872.00
2022-10-23T11:20:30.376Z,7700.00
2022-10-23T11:21:30.355Z,7564.00
2022-10-23T11:22:30.331Z,7472.00
2022-10-23T11:23:30.339Z,7360.00
2022-10-23T11:24:30.292Z,7240.00
2022-10-23T11:25:30.357Z,7236.00
2022-10-23T11:26:30.289Z,7248.00
2022-10-23T11:27:30.237Z,7308.00
2022-10-23T11:28:30.215Z,7332.00
2022-10-23T11:29:30.200Z,7356.00
2022-10-23T11:30:30.186Z,7316.00
2022-10-23T11:31:30.184Z,7320.00
2022-10-23T11:32:30.161Z,7340.00
2022-10-23T11:33:30.121Z,7324.00
2022-10-23T11:34:30.106Z,7276.00
2022-10-23T11:35:30.086Z,7200.00
2022-10-23T11:36:30.092Z,7100.00
2022-10-23T11:37:30.048Z,6972.00
2022-10-23T11:38:30.034Z,6888.00
2022-10-23T11:39:30.036Z,6828.00
2022-10-23T11:40:29.987Z,6748.00
2022-10-23T11:41:29.966Z,6672.00
2022-10-23T11:42:29.943Z,6636.00
2022-10-23T11:43:29.924Z,6636.00
2022-10-23T11:44:29.940Z,6660.00
2022-10-23T11:45:29.891Z,6688.00
2022-10-23T11:46:29.901Z,6696.00
2022-10-23T11:47:29.853Z,6688.00
2022-10-23T11:48:29.837Z,6632.00
2022-10-23T11:49:29.818Z,6524.00
2022-10-23T11:50:29.801Z,6436.00
2022-10-23T11:51:29.809Z,6428.00
2022-10-23T11:52:29.757Z,6484.00
2022-10-23T11:53:29.733Z,6456.00
2022-10-23T11:54:29.712Z,6356.00
2022-10-23T11:55:29.697Z,6244.00
2022-10-23T11:56:29.722Z,6148.00
2022-10-23T11:58:29.658Z,5988.00
2022-10-23T11:59:29.641Z,5940.00
2022-10-23T12:00:29.596Z,5892.00
2022-10-23T12:01:29.683Z,5856.00
2022-10-23T12:02:29.674Z,5856.00
2022-10-23T12:03:29.539Z,5860.00
2022-10-23T12:04:29.526Z,5828.00
2022-10-23T12:05:29.535Z,5772.00
2022-10-23T12:06:29.514Z,5704.00
2022-10-23T12:07:29.452Z,5612.00
2022-10-23T12:08:29.439Z,5524.00
2022-10-23T12:09:29.409Z,5452.00
2022-10-23T12:10:29.391Z,5392.00
2022-10-23T12:11:29.400Z,5328.00
2022-10-23T12:12:30.356Z,5272.00
2022-10-23T12:13:29.352Z,5216.00
2022-10-23T12:14:29.310Z,5180.00
2022-10-23T12:15:29.300Z,5172.00
2022-10-23T12:16:29.302Z,5180.00
2022-10-23T12:17:29.267Z,5196.00
2022-10-23T12:18:29.229Z,5184.00
2022-10-23T12:19:29.208Z,5204.00
2022-10-23T12:20:29.201Z,5248.00
2022-10-23T12:21:29.210Z,5264.00
2022-10-23T12:22:29.164Z,5264.00
2022-10-23T12:23:29.145Z,5264.00
2022-10-23T12:24:29.121Z,5244.00
2022-10-23T12:25:29.110Z,5184.00
2022-10-23T12:26:29.114Z,5036.00
2022-10-23T12:27:29.048Z,4888.00
2022-10-23T12:28:29.040Z,4752.00
2022-10-23T12:29:29.006Z,4608.00
2022-10-23T12:30:28.978Z,4460.00
2022-10-23T12:31:28.954Z,4272.00
2022-10-23T12:32:28.965Z,4100.00
2022-10-23T12:33:28.917Z,3988.00
2022-10-23T12:34:28.904Z,3932.00
2022-10-23T12:35:28.897Z,3904.00
2022-10-23T12:36:28.878Z,3932.00